Time;durP1;ratioP1;P1;durP2;ratioP2;P2;SDS_P1;SDS_P2;PMS_P1;PMS_P2;Temp;Humidity;BMP_temperature;BMP_pressure;BME280_temperature;BME280_humidity;BME280_pressure;Samples;Min_cycle;Max_cycle;Signal;HPM_P1;HPM_P2
2024/03/01 00:00:36;;;;;;;13.98;10.52;;;;;;;14.59;75.08;100096.84;5050270;28;20120;-47
2024/03/01 00:03:03;;;;;;;14.82;10.40;;;;;;;14.55;74.93;100091.69;5050246;28;20124;-46
2024/03/01 00:05:30;;;;;;;14.48;10.57;;;;;;;14.16;77.13;100099.19;5050554;28;20041;-44
2024/03/01 00:07:57;;;;;;;15.30;10.45;;;;;;;14.55;75.61;100091.69;5050378;28;20025;-47
2024/03/01 00:10:24;;;;;;;14.65;10.40;;;;;;;14.46;75.25;100087.41;5049466;28;20600;-44
2024/03/01 00:12:49;;;;;;;16.20;10.30;;;;;;;14.38;75.89;100084.06;5049874;28;20430;-47
2024/03/01 00:15:15;;;;;;;15.70;10.73;;;;;;;14.27;76.29;100075.47;5050477;28;20029;-44
2024/03/01 00:17:40;;;;;;;15.05;9.93;;;;;;;14.31;76.03;100086.75;5050290;28;20041;-45
2024/03/01 00:20:06;;;;;;;14.10;9.77;;;;;;;14.47;75.61;100083.06;5049603;28;20032;-47
2024/03/01 00:22:31;;;;;;;14.18;10.43;;;;;;;14.56;75.28;100070.69;5050484;28;20495;-50
2024/03/01 00:24:57;;;;;;;17.33;11.20;;;;;;;14.61;75.06;100073.22;5051087;28;20108;-44
2024/03/01 00:27:22;;;;;;;15.65;10.45;;;;;;;14.50;75.24;100072.53;5050099;28;20037;-46
2024/03/01 00:29:47;;;;;;;13.52;10.02;;;;;;;14.71;74.49;100076.56;5050186;28;20041;-45
2024/03/01 00:32:13;;;;;;;15.15;10.35;;;;;;;14.74;74.58;100077.38;5049678;28;20056;-46
2024/03/01 00:34:38;;;;;;;14.63;10.07;;;;;;;14.29;75.90;100073.66;5050785;28;20487;-46
2024/03/01 00:37:03;;;;;;;14.60;10.23;;;;;;;14.58;75.09;100065.38;5049937;28;20037;-47
2024/03/01 00:39:30;;;;;;;12.90;9.70;;;;;;;14.70;74.53;100070.44;5050381;28;20083;-45
2024/03/01 00:41:55;;;;;;;13.02;9.45;;;;;;;14.75;74.58;100054.66;5049907;28;20116;-47
2024/03/01 00:44:21;;;;;;;15.20;9.85;;;;;;;14.64;75.12;100067.91;5049378;28;20132;-47
2024/03/01 00:46:46;;;;;;;15.32;10.00;;;;;;;14.70;74.37;100064.34;5049933;28;20029;-44
2024/03/01 00:49:13;;;;;;;14.13;10.18;;;;;;;14.67;74.70;100065.25;5050069;28;20082;-48
2024/03/01 00:51:38;;;;;;;14.57;9.35;;;;;;;14.74;74.24;100061.66;5050535;28;20025;-45
2024/03/01 00:54:04;;;;;;;13.60;9.50;;;;;;;14.85;73.69;100062.31;5050227;28;20112;-46
2024/03/01 00:56:29;;;;;;;14.05;9.95;;;;;;;14.75;73.95;100067.75;5050388;28;20061;-45
2024/03/01 00:58:54;;;;;;;14.23;10.27;;;;;;;14.53;74.95;100056.72;5050891;28;20518;-48
2024/03/01 01:01:20;;;;;;;14.27;10.15;;;;;;;14.76;74.28;100059.00;5049399;28;20033;-45
2024/03/01 01:03:45;;;;;;;12.95;9.38;;;;;;;14.69;74.44;100054.75;5050097;28;20113;-47
2024/03/01 01:06:11;;;;;;;12.95;9.40;;;;;;;14.88;73.95;100054.38;5049931;28;20029;-44
2024/03/01 01:08:37;;;;;;;13.85;9.57;;;;;;;14.82;74.03;100045.78;5036259;28;20025;-47
2024/03/01 01:11:02;;;;;;;13.13;9.45;;;;;;;14.82;73.63;100032.66;5053802;28;20517;-47
2024/03/01 01:13:27;;;;;;;16.00;9.70;;;;;;;14.79;74.04;100037.94;5053742;28;20140;-45
2024/03/01 01:15:53;;;;;;;14.65;9.20;;;;;;;14.69;74.20;100032.00;5054102;28;20079;-45
2024/03/01 01:18:18;;;;;;;13.43;9.07;;;;;;;14.82;74.11;100028.25;5053152;28;20040;-45
2024/03/01 01:20:45;;;;;;;13.10;9.18;;;;;;;14.87;73.20;100034.31;5053140;28;20044;-48
2024/03/01 01:23:11;;;;;;;12.27;9.23;;;;;;;14.77;73.72;100027.47;5053245;28;20025;-49
2024/03/01 01:25:36;;;;;;;12.40;8.82;;;;;;;14.55;74.28;100023.47;5054030;28;20039;-47
2024/03/01 01:28:02;;;;;;;12.65;8.45;;;;;;;14.85;73.79;100028.22;5054141;28;20111;-45
2024/03/01 01:30:27;;;;;;;13.88;9.10;;;;;;;14.72;74.43;100025.81;5053194;28;20040;-47
2024/03/01 01:32:52;;;;;;;13.85;8.38;;;;;;;14.82;73.74;100015.13;5054027;28;20036;-47
2024/03/01 01:35:18;;;;;;;11.73;8.27;;;;;;;14.80;73.92;100009.06;5035559;28;20039;-46
2024/03/01 01:37:43;;;;;;;12.50;8.60;;;;;;;14.88;73.04;100004.53;5054050;28;20033;-44
2024/03/01 01:40:09;;;;;;;13.60;8.18;;;;;;;14.55;74.27;100002.50;5052684;28;20041;-46
2024/03/01 01:42:35;;;;;;;10.82;8.00;;;;;;;14.86;73.59;99994.97;5053129;28;20506;-45
2024/03/01 01:45:01;;;;;;;11.05;8.07;;;;;;;14.81;73.35;99994.19;5053178;28;20029;-46
2024/03/01 01:47:27;;;;;;;11.68;8.35;;;;;;;14.69;74.04;99992.66;5053120;28;20036;-48
2024/03/01 01:49:52;;;;;;;14.63;7.97;;;;;;;14.90;73.58;99988.75;5054483;28;20025;-45
2024/03/01 01:52:18;;;;;;;12.18;8.50;;;;;;;14.97;72.78;99996.50;5054248;28;20431;-45
2024/03/01 01:54:43;;;;;;;11.13;8.30;;;;;;;14.68;74.03;99990.03;5054472;28;20029;-45
2024/03/01 01:57:10;;;;;;;11.77;8.20;;;;;;;14.84;73.44;99983.63;5054044;28;20120;-50
2024/03/01 01:59:36;;;;;;;11.63;7.78;;;;;;;14.92;72.99;99993.09;5054249;28;20040;-46
2024/03/01 02:02:03;;;;;;;14.30;8.23;;;;;;;14.60;74.10;99991.03;5053155;28;20060;-46
2024/03/01 02:04:29;;;;;;;11.00;7.78;;;;;;;14.60;74.14;99987.53;5053206;28;20037;-47
2024/03/01 02:06:55;;;;;;;12.82;8.75;;;;;;;14.47;74.63;99994.75;5053512;28;20029;-45
2024/03/01 02:09:20;;;;;;;12.07;8.82;;;;;;;14.01;76.14;100004.19;5053020;28;20041;-45
2024/03/01 02:11:46;;;;;;;13.82;9.23;;;;;;;13.90;76.77;100004.34;5053367;28;20112;-46
2024/03/01 02:14:12;;;;;;;12.35;9.32;;;;;;;13.38;78.91;100025.94;5053137;28;20075;-47
2024/03/01 02:16:37;;;;;;;8.40;5.28;;;;;;;12.81;80.36;100026.50;5054356;28;20041;-47
2024/03/01 02:19:17;;;;;;;7.65;4.60;;;;;;;12.20;82.62;100046.16;5053474;28;20507;-45
2024/03/01 02:21:52;;;;;;;12.77;3.53;;;;;;;11.79;82.96;100069.03;5059904;28;20037;-46
2024/03/01 02:24:18;;;;;;;6.88;1.77;;;;;;;11.16;82.08;100081.34;5060080;28;20037;-47
2024/03/01 02:26:44;;;;;;;6.40;1.30;;;;;;;10.96;81.94;100068.38;5060827;28;20059;-44
2024/03/01 02:29:09;;;;;;;3.72;0.98;;;;;;;10.81;81.64;100088.34;5055641;28;20495;-46
2024/03/01 02:31:34;;;;;;;9.00;1.40;;;;;;;10.45;82.10;100089.19;5053018;28;20041;-46
2024/03/01 02:34:00;;;;;;;4.93;1.40;;;;;;;10.01;84.25;100097.75;5052541;28;20044;-45
2024/03/01 02:36:25;;;;;;;6.53;1.50;;;;;;;10.44;83.22;100090.94;5052224;28;20040;-45
2024/03/01 02:38:50;;;;;;;4.82;1.20;;;;;;;10.65;81.82;100104.88;5053702;28;20040;-47
2024/03/01 02:41:16;;;;;;;3.75;1.15;;;;;;;10.37;82.09;100115.25;5052172;28;20041;-47
2024/03/01 02:43:41;;;;;;;5.85;0.98;;;;;;;10.21;81.56;100113.47;5052360;28;20035;-47
2024/03/01 02:46:07;;;;;;;3.00;0.80;;;;;;;9.87;82.60;100109.88;5051336;28;20060;-48
2024/03/01 02:48:33;;;;;;;4.20;0.60;;;;;;;10.08;82.08;100119.47;5052321;28;20086;-45
2024/03/01 02:50:58;;;;;;;1.92;0.52;;;;;;;9.84;82.85;100122.84;5052909;28;20037;-46
2024/03/01 02:53:23;;;;;;;3.63;0.70;;;;;;;9.96;81.84;100109.88;5052701;28;20116;-45
2024/03/01 02:55:48;;;;;;;3.72;0.80;;;;;;;10.16;80.80;100117.78;5052938;28;20031;-46
2024/03/01 02:58:14;;;;;;;5.00;0.70;;;;;;;10.58;78.51;100114.41;5053171;28;20029;-45
2024/03/01 03:00:39;;;;;;;4.10;0.98;;;;;;;10.47;78.92;100114.41;5052188;28;20036;-46
2024/03/01 03:03:04;;;;;;;5.68;0.80;;;;;;;10.30;80.29;100105.69;5051279;28;20395;-46
2024/03/01 03:05:30;;;;;;;7.65;0.90;;;;;;;10.48;79.37;100115.28;5051737;28;20036;-46
2024/03/01 03:07:55;;;;;;;5.93;0.95;;;;;;;10.36;79.13;100118.75;5053392;28;20037;-44
2024/03/01 03:10:20;;;;;;;4.47;0.93;;;;;;;10.06;79.37;100131.63;5053723;28;20061;-46
2024/03/01 03:12:46;;;;;;;5.60;0.88;;;;;;;10.31;79.34;100128.25;5052703;28;20278;-48
2024/03/01 03:15:13;;;;;;;5.72;0.80;;;;;;;10.48;78.19;100141.34;5033045;28;20098;-44
2024/03/01 03:17:38;;;;;;;5.47;0.90;;;;;;;10.51;77.87;100155.22;5051879;28;20029;-46
2024/03/01 03:20:11;;;;;;;3.30;0.82;;;;;;;10.48;77.89;100159.59;5052534;28;20039;-46
2024/03/01 03:22:38;;;;;;;4.80;0.80;;;;;;;10.68;77.97;100157.88;5053034;28;20381;-45
2024/03/01 03:25:04;;;;;;;4.97;0.90;;;;;;;10.98;76.25;100155.28;5053107;28;20064;-47
2024/03/01 03:27:29;;;;;;;6.05;1.10;;;;;;;10.61;77.54;100163.09;5051820;28;20060;-45
2024/03/01 03:29:55;;;;;;;4.53;0.82;;;;;;;10.56;77.44;100166.53;5050950;28;20022;-46
2024/03/01 03:32:21;;;;;;;5.03;0.90;;;;;;;10.61;77.59;100166.56;5050300;28;20041;-45
2024/03/01 03:34:46;;;;;;;2.50;0.90;;;;;;;10.80;76.32;100165.69;5050957;28;20033;-44
2024/03/01 03:37:12;;;;;;;7.57;1.00;;;;;;;10.49;77.35;100169.97;5050391;28;20033;-45
2024/03/01 03:39:37;;;;;;;3.30;0.90;;;;;;;10.76;76.88;100168.31;5051061;28;20440;-48
2024/03/01 03:42:03;;;;;;;5.60;1.00;;;;;;;10.70;76.93;100171.78;5050151;28;20097;-44
2024/03/01 03:44:28;;;;;;;6.20;1.05;;;;;;;10.93;76.03;100175.28;5050431;28;20073;-46
2024/03/01 03:46:54;;;;;;;4.55;1.00;;;;;;;11.22;75.40;100171.81;5051207;28;20045;-46
2024/03/01 03:49:20;;;;;;;7.78;1.20;;;;;;;11.02;75.34;100176.16;5050400;28;20573;-45
2024/03/01 03:51:45;;;;;;;6.10;1.10;;;;;;;11.15;74.89;100175.31;5050515;28;20037;-46
2024/03/01 03:54:13;;;;;;;5.70;1.00;;;;;;;11.10;75.31;100187.47;5050247;28;20029;-45
2024/03/01 03:56:39;;;;;;;3.60;1.02;;;;;;;10.56;77.48;100196.94;5050777;28;20041;-46
2024/03/01 03:59:04;;;;;;;5.68;1.30;;;;;;;11.01;76.49;100201.38;5050352;28;20029;-45
2024/03/01 04:01:30;;;;;;;6.88;1.20;;;;;;;10.55;77.26;100203.88;5050006;28;20116;-47
2024/03/01 04:03:55;;;;;;;7.07;1.50;;;;;;;10.69;76.33;100216.09;5050707;28;20324;-45
2024/03/01 04:06:21;;;;;;;7.82;1.27;;;;;;;10.95;76.24;100215.28;5050046;28;20078;-47
2024/03/01 04:08:47;;;;;;;8.73;1.30;;;;;;;10.73;76.21;100216.13;5050351;28;20115;-45
2024/03/01 04:11:12;;;;;;;3.28;1.00;;;;;;;10.68;77.03;100225.63;5049322;28;20456;-44
2024/03/01 04:13:38;;;;;;;6.07;1.20;;;;;;;10.61;75.95;100225.66;5050724;28;20045;-44
2024/03/01 04:16:06;;;;;;;6.78;1.30;;;;;;;10.84;75.18;100227.44;5051798;28;20033;-51
2024/03/01 04:18:34;;;;;;;4.45;1.20;;;;;;;10.87;75.14;100230.03;5051416;28;20043;-46
2024/03/01 04:21:00;;;;;;;5.38;1.20;;;;;;;11.14;74.55;100224.00;5051429;28;20029;-45
2024/03/01 04:23:26;;;;;;;6.95;1.40;;;;;;;10.76;74.92;100236.97;5051553;28;20032;-46
2024/03/01 04:25:54;;;;;;;4.60;0.98;;;;;;;10.71;75.51;100225.66;5033620;28;20049;-45
2024/03/01 04:28:23;;;;;;;5.93;1.40;;;;;;;10.62;75.32;100230.84;5050631;28;20680;-47
2024/03/01 04:30:49;;;;;;;6.18;1.67;;;;;;;10.88;74.98;100231.78;5049885;28;20029;-45
2024/03/01 04:33:14;;;;;;;5.22;1.48;;;;;;;10.81;74.94;100234.38;5031304;28;20396;-46
2024/03/01 04:35:40;;;;;;;6.65;1.30;;;;;;;10.64;75.27;100230.84;5049885;28;20491;-47
2024/03/01 04:38:07;;;;;;;6.80;1.40;;;;;;;10.36;75.92;100235.13;5050191;28;20495;-44
2024/03/01 04:40:33;;;;;;;3.85;1.30;;;;;;;10.75;75.39;100234.34;5050514;28;20036;-48
2024/03/01 04:42:59;;;;;;;4.72;1.40;;;;;;;10.80;75.13;100232.63;5050581;28;20032;-47
2024/03/01 04:45:25;;;;;;;5.80;1.40;;;;;;;11.21;73.41;100224.88;5050317;28;20120;-45
2024/03/01 04:47:51;;;;;;;3.88;1.40;;;;;;;11.40;72.33;100226.63;5050538;28;20036;-45
2024/03/01 04:50:16;;;;;;;4.72;1.40;;;;;;;11.19;72.89;100234.44;5050424;28;20033;-46
2024/03/01 04:52:42;;;;;;;6.68;1.52;;;;;;;11.21;72.23;100236.19;5050095;28;20112;-46
2024/03/01 04:55:09;;;;;;;4.25;1.67;;;;;;;10.99;73.48;100244.84;5049656;28;20025;-45
2024/03/01 04:57:35;;;;;;;3.83;1.60;;;;;;;10.84;73.35;100250.91;5050284;28;20037;-44
2024/03/01 05:00:00;;;;;;;6.30;1.90;;;;;;;10.86;74.00;100253.50;5049765;28;20037;-45
2024/03/01 05:02:25;;;;;;;4.38;1.52;;;;;;;11.20;73.42;100247.47;5049279;28;20403;-45
2024/03/01 05:04:51;;;;;;;6.50;1.90;;;;;;;11.20;72.81;100252.69;5050029;28;20415;-47
2024/03/01 05:07:16;;;;;;;5.78;1.55;;;;;;;11.14;72.24;100247.47;5049912;28;20037;-47
2024/03/01 05:09:42;;;;;;;6.50;1.67;;;;;;;11.10;72.52;100255.31;5049445;28;20040;-44
2024/03/01 05:12:13;;;;;;;8.07;1.48;;;;;;;11.04;71.96;100252.69;5048872;28;20033;-44
2024/03/01 05:14:39;;;;;;;4.72;1.55;;;;;;;10.78;73.09;100256.09;5031634;28;20128;-45
2024/03/01 05:17:05;;;;;;;5.65;1.50;;;;;;;10.72;72.94;100256.09;5049418;28;20590;-44
2024/03/01 05:19:32;;;;;;;3.95;1.67;;;;;;;10.61;73.77;100259.53;5049990;28;20029;-45
2024/03/01 05:21:58;;;;;;;3.65;1.55;;;;;;;10.83;72.39;100250.91;5049207;28;20550;-45
2024/03/01 05:24:23;;;;;;;9.38;1.70;;;;;;;10.79;71.74;100257.84;5049422;28;20125;-44
2024/03/01 05:26:48;;;;;;;4.72;1.50;;;;;;;10.75;71.79;100263.91;5049394;28;20091;-47
2024/03/01 05:29:14;;;;;;;3.45;1.30;;;;;;;10.67;71.72;100263.03;5049820;28;20025;-46
2024/03/01 05:31:50;;;;;;;4.47;1.52;;;;;;;10.52;72.75;100268.19;5052136;28;20086;-44
2024/03/01 05:34:15;;;;;;;4.45;1.70;;;;;;;10.58;71.81;100282.09;5052313;28;20029;-46
2024/03/01 05:36:41;;;;;;;5.63;1.90;;;;;;;10.56;71.64;100288.16;5052619;28;20086;-46
2024/03/01 05:39:16;;;;;;;7.85;2.10;;;;;;;10.53;71.81;100289.03;5051114;28;20064;-45
2024/03/01 05:41:45;;;;;;;7.00;2.15;;;;;;;10.48;72.09;100289.88;5031567;28;20036;-47
2024/03/01 05:44:14;;;;;;;6.95;2.30;;;;;;;10.44;72.20;100285.50;5049300;28;20531;-45
2024/03/01 05:46:40;;;;;;;4.15;2.20;;;;;;;10.34;72.77;100289.81;5050005;28;20125;-45
2024/03/01 05:49:06;;;;;;;6.07;2.42;;;;;;;10.22;72.94;100297.56;5049411;28;20029;-45
2024/03/01 05:51:31;;;;;;;6.20;2.50;;;;;;;10.26;72.97;100296.72;5049180;28;20120;-44
2024/03/01 05:53:57;;;;;;;5.20;2.33;;;;;;;10.30;72.49;100295.88;5052970;28;20048;-44
2024/03/01 05:56:24;;;;;;;4.57;2.30;;;;;;;10.23;72.81;100301.03;5052818;28;20621;-46
2024/03/01 05:58:49;;;;;;;4.63;2.20;;;;;;;10.23;72.80;100309.72;5053889;28;20040;-45
2024/03/01 06:01:16;;;;;;;7.25;2.53;;;;;;;10.06;72.93;100306.97;5054688;28;20036;-45
2024/03/01 06:03:43;;;;;;;6.28;2.38;;;;;;;10.24;72.66;100310.59;5058683;28;20031;-48
2024/03/01 06:06:09;;;;;;;8.07;2.30;;;;;;;10.29;72.74;100319.31;5055452;28;20025;-48
2024/03/01 06:08:35;;;;;;;5.93;2.30;;;;;;;10.35;72.37;100316.75;5055071;28;20094;-44
2024/03/01 06:11:00;;;;;;;7.47;2.33;;;;;;;10.10;73.28;100323.50;5054732;28;20646;-46
2024/03/01 06:13:25;;;;;;;4.07;2.13;;;;;;;10.26;72.30;100322.75;5053493;28;20037;-46
2024/03/01 06:15:51;;;;;;;4.20;1.90;;;;;;;10.23;72.23;100319.28;5059306;28;20032;-46
2024/03/01 06:18:17;;;;;;;6.53;2.00;;;;;;;10.23;72.28;100322.75;5041374;28;20544;-44
2024/03/01 06:20:42;;;;;;;4.50;2.03;;;;;;;10.15;72.47;100317.47;5058302;28;20523;-45
2024/03/01 06:23:07;;;;;;;5.90;1.92;;;;;;;10.05;72.81;100322.63;5056711;28;20029;-45
2024/03/01 06:25:33;;;;;;;5.13;2.00;;;;;;;10.15;72.53;100311.38;5052713;28;20044;-47
2024/03/01 06:27:58;;;;;;;5.40;1.92;;;;;;;10.11;72.49;100314.84;5052209;28;20514;-46
2024/03/01 06:30:23;;;;;;;5.55;2.10;;;;;;;9.95;73.39;100315.56;5052532;28;20033;-45
2024/03/01 06:32:49;;;;;;;7.38;2.50;;;;;;;10.02;73.00;100320.84;5054362;28;20025;-44
2024/03/01 06:35:14;;;;;;;4.53;2.50;;;;;;;10.21;72.13;100314.06;5034843;28;20049;-47
2024/03/01 06:37:39;;;;;;;7.43;2.70;;;;;;;10.24;71.77;100315.81;5052208;28;20044;-45
2024/03/01 06:40:09;;;;;;;7.05;2.33;;;;;;;10.27;72.00;100318.41;5051279;28;20037;-47
2024/03/01 06:42:34;;;;;;;5.20;2.80;;;;;;;10.21;72.60;100321.88;5051523;28;20029;-45
2024/03/01 06:45:00;;;;;;;8.25;3.30;;;;;;;10.08;72.62;100320.00;5051891;28;20036;-46
2024/03/01 06:47:25;;;;;;;8.15;3.38;;;;;;;10.18;72.48;100321.00;5051450;28;20025;-46
2024/03/01 06:49:50;;;;;;;7.70;3.80;;;;;;;10.19;72.47;100320.97;5051653;28;20047;-47
2024/03/01 06:52:16;;;;;;;13.73;4.28;;;;;;;10.29;72.14;100321.91;5050705;28;20049;-46
2024/03/01 06:54:45;;;;;;;9.48;3.83;;;;;;;10.35;71.92;100322.81;5051692;28;20075;-45
2024/03/01 06:57:10;;;;;;;7.32;3.83;;;;;;;10.29;72.95;100320.19;5052453;28;20515;-45
2024/03/01 06:59:38;;;;;;;7.43;3.88;;;;;;;10.42;73.71;100318.53;5053168;28;20062;-46
2024/03/01 07:02:04;;;;;;;11.85;3.67;;;;;;;10.66;73.26;100318.63;5051294;28;20496;-47
2024/03/01 07:04:29;;;;;;;12.02;4.03;;;;;;;10.79;72.76;100325.66;5051052;28;20090;-45
2024/03/01 07:06:55;;;;;;;7.93;3.60;;;;;;;10.93;72.60;100316.09;5051894;28;20082;-48
2024/03/01 07:09:21;;;;;;;8.57;3.83;;;;;;;10.97;72.08;100310.06;5051435;28;20131;-47
2024/03/01 07:11:46;;;;;;;10.48;3.80;;;;;;;10.99;71.84;100302.22;5050925;28;20116;-47
2024/03/01 07:14:12;;;;;;;8.93;3.70;;;;;;;11.11;72.50;100302.25;5050918;28;20480;-47
2024/03/01 07:16:37;;;;;;;8.85;4.07;;;;;;;11.46;72.09;100288.38;5051286;28;20098;-47
2024/03/01 07:19:02;;;;;;;8.48;4.20;;;;;;;11.65;71.06;100282.25;5052752;28;20033;-45
2024/03/01 07:21:29;;;;;;;7.85;3.85;;;;;;;11.69;69.05;100292.72;5052087;28;20367;-44
2024/03/01 07:23:54;;;;;;;11.30;3.63;;;;;;;11.56;68.87;100297.94;5053078;28;20083;-45
2024/03/01 07:26:20;;;;;;;10.65;4.32;;;;;;;11.35;69.47;100297.06;5052757;28;20029;-47
2024/03/01 07:28:45;;;;;;;9.80;4.00;;;;;;;11.44;69.14;100291.00;5052917;28;20074;-43
2024/03/01 07:31:11;;;;;;;9.52;4.05;;;;;;;11.29;69.51;100293.56;5051725;28;20025;-45
2024/03/01 07:33:36;;;;;;;9.35;4.15;;;;;;;11.32;69.60;100290.97;5052860;28;20032;-46
2024/03/01 07:36:02;;;;;;;8.68;3.88;;;;;;;11.51;69.73;100295.34;5051752;28;20061;-45
2024/03/01 07:38:27;;;;;;;9.80;4.18;;;;;;;11.31;69.31;100297.06;5050546;28;20107;-45
2024/03/01 07:40:52;;;;;;;15.07;4.78;;;;;;;11.45;69.43;100297.09;5050387;28;20056;-45
2024/03/01 07:43:19;;;;;;;9.60;4.38;;;;;;;11.54;69.06;100295.34;5050883;28;20396;-50
2024/03/01 07:45:44;;;;;;;12.13;4.65;;;;;;;11.52;68.80;100285.78;5051488;28;20032;-47
2024/03/01 07:48:10;;;;;;;12.23;4.57;;;;;;;11.37;68.98;100300.56;5050789;28;20495;-46
2024/03/01 07:50:37;;;;;;;13.18;5.20;;;;;;;11.33;68.64;100300.56;5050393;28;20025;-44
2024/03/01 07:53:03;;;;;;;14.88;5.40;;;;;;;11.38;68.66;100297.06;5050329;28;20483;-45
2024/03/01 07:55:28;;;;;;;13.35;5.60;;;;;;;11.29;68.78;100297.06;5050461;28;20094;-48
2024/03/01 07:57:54;;;;;;;11.80;5.32;;;;;;;11.50;69.22;100300.56;5050519;28;20037;-48
2024/03/01 08:00:20;;;;;;;13.60;5.97;;;;;;;11.49;69.04;100302.28;5050436;28;20079;-48
2024/03/01 08:02:50;;;;;;;12.27;5.30;;;;;;;11.55;68.47;100293.59;5050953;28;20064;-46
2024/03/01 08:05:16;;;;;;;13.20;5.47;;;;;;;11.79;67.91;100289.25;5050031;28;20041;-48
2024/03/01 08:07:41;;;;;;;11.55;5.45;;;;;;;11.78;67.90;100286.66;5050512;28;20121;-47
2024/03/01 08:10:13;;;;;;;11.10;5.35;;;;;;;11.53;67.28;100308.38;5049463;28;20131;-48
2024/03/01 08:12:41;;;;;;;11.23;5.80;;;;;;;12.00;67.42;100295.34;5049465;28;20029;-46
2024/03/01 08:15:09;;;;;;;15.13;6.60;;;;;;;11.64;65.98;100296.22;5049839;28;20056;-47
2024/03/01 08:17:34;;;;;;;15.43;6.18;;;;;;;11.77;65.60;100295.38;5049492;28;20098;-45
2024/03/01 08:19:59;;;;;;;11.52;6.53;;;;;;;11.64;65.78;100297.09;5049882;28;20503;-45
2024/03/01 08:22:25;;;;;;;14.38;6.40;;;;;;;11.84;65.30;100307.53;5049327;28;20039;-47
2024/03/01 08:24:54;;;;;;;14.23;6.53;;;;;;;12.14;65.31;100307.50;5049844;28;20518;-48
2024/03/01 08:27:25;;;;;;;14.70;6.97;;;;;;;12.01;64.67;100297.97;5050621;28;20044;-44
2024/03/01 08:29:51;;;;;;;14.35;7.30;;;;;;;12.18;64.60;100308.38;5050191;28;20043;-47
2024/03/01 08:32:35;;;;;;;14.85;8.25;;;;;;;12.17;64.77;100304.00;5050667;28;20507;-45
2024/03/01 08:35:00;;;;;;;17.50;8.70;;;;;;;12.40;63.54;100307.44;5052381;28;20033;-45
2024/03/01 08:37:31;;;;;;;16.92;8.90;;;;;;;12.16;64.05;100276.13;5052334;28;20120;-45
2024/03/01 08:39:57;;;;;;;17.35;8.90;;;;;;;12.37;63.66;100275.22;5051249;28;20082;-44
2024/03/01 08:42:24;;;;;;;16.88;9.02;;;;;;;12.43;63.27;100281.28;5050085;28;20087;-45
2024/03/01 08:44:59;;;;;;;16.52;8.85;;;;;;;12.35;63.66;100270.00;5050853;28;20029;-45
2024/03/01 08:47:26;;;;;;;18.38;9.05;;;;;;;12.45;63.97;100274.28;5050104;28;20082;-45
2024/03/01 08:49:52;;;;;;;17.92;8.60;;;;;;;12.67;62.88;100266.38;5049184;28;20092;-44
2024/03/01 08:52:31;;;;;;;16.67;9.32;;;;;;;12.55;63.07;100277.75;5049756;28;20033;-44
2024/03/01 08:55:11;;;;;;;19.50;9.48;;;;;;;12.49;63.14;100273.44;5050927;28;20064;-48
2024/03/01 08:57:37;;;;;;;18.00;9.43;;;;;;;12.46;62.61;100277.78;5050768;28;20453;-46
2024/03/01 09:00:26;;;;;;;15.93;9.10;;;;;;;12.42;63.22;100276.06;5050585;28;20040;-47
2024/03/01 09:02:52;;;;;;;21.55;9.68;;;;;;;12.76;62.07;100279.38;5050342;28;20033;-46
2024/03/01 09:05:18;;;;;;;18.15;9.18;;;;;;;12.81;61.54;100275.88;5050300;28;20037;-45
2024/03/01 09:07:44;;;;;;;18.63;9.85;;;;;;;12.60;62.47;100269.03;5051685;28;20116;-44
2024/03/01 09:10:18;;;;;;;19.17;10.30;;;;;;;12.66;62.33;100277.72;5044000;28;20128;-47
2024/03/01 09:12:46;;;;;;;21.23;10.80;;;;;;;12.81;62.46;100272.38;5053653;28;20029;-46
2024/03/01 09:15:15;;;;;;;19.95;11.15;;;;;;;12.46;62.93;100272.56;5033520;28;20257;-46
2024/03/01 09:17:41;;;;;;;23.02;12.32;;;;;;;12.37;63.04;100285.69;5051021;28;20033;-45
2024/03/01 09:20:36;;;;;;;18.00;11.27;;;;;;;12.01;63.96;100284.03;5049075;28;20542;-47
2024/03/01 09:23:11;;;;;;;18.80;10.93;;;;;;;12.47;63.02;100277.78;5032130;28;20126;-46
2024/03/01 09:25:57;;;;;;;21.08;11.15;;;;;;;12.37;63.23;100280.44;5049046;28;20036;-48
2024/03/01 09:28:24;;;;;;;18.33;10.77;;;;;;;12.45;62.99;100276.03;5052547;28;20522;-46
2024/03/01 09:30:51;;;;;;;19.33;11.10;;;;;;;12.81;62.06;100275.00;5054749;28;20730;-45
2024/03/01 09:33:19;;;;;;;18.27;10.63;;;;;;;13.01;61.81;100276.63;5052588;28;20499;-47
2024/03/01 09:35:45;;;;;;;20.25;10.43;;;;;;;12.62;61.85;100270.75;5053606;28;20025;-45
2024/03/01 09:38:13;;;;;;;19.38;9.90;;;;;;;12.91;61.11;100261.88;5052583;28;20033;-45
2024/03/01 09:40:47;;;;;;;18.60;10.50;;;;;;;13.17;60.42;100253.03;5053619;28;20028;-48
2024/03/01 09:43:31;;;;;;;17.63;10.30;;;;;;;12.90;60.79;100251.41;5052622;28;20068;-51
2024/03/01 09:46:31;;;;;;;20.55;10.75;;;;;;;12.97;60.40;100240.91;5053070;28;20057;-48
2024/03/01 09:49:06;;;;;;;16.48;8.88;;;;;;;12.87;58.86;100241.81;5053072;28;20079;-48
2024/03/01 09:51:50;;;;;;;16.52;8.68;;;;;;;12.76;58.52;100238.41;5053253;28;20523;-46
2024/03/01 09:54:26;;;;;;;16.70;9.65;;;;;;;12.65;58.73;100235.00;5053998;28;20143;-47
2024/03/01 09:56:59;;;;;;;15.88;9.90;;;;;;;12.52;59.70;100228.09;5052041;28;20033;-46
2024/03/01 09:59:37;;;;;;;18.10;10.10;;;;;;;12.99;59.05;100227.84;5052877;28;20523;-46
2024/03/01 10:02:13;;;;;;;17.23;10.32;;;;;;;13.35;59.04;100216.25;5051982;28;20033;-44
2024/03/01 10:05:04;;;;;;;18.55;10.38;;;;;;;13.23;59.51;100209.38;5052647;28;20029;-50
2024/03/01 10:07:37;;;;;;;20.52;10.77;;;;;;;13.37;58.98;100211.84;5053188;28;20060;-46
2024/03/01 10:10:21;;;;;;;14.87;9.30;;;;;;;13.19;58.90;100207.63;5054657;28;20078;-45
2024/03/01 10:12:51;;;;;;;15.43;9.23;;;;;;;13.45;57.35;100210.03;5056462;28;20119;-47
2024/03/01 10:15:51;;;;;;;13.48;8.27;;;;;;;13.39;57.33;100200.50;5054539;28;20071;-49
2024/03/01 10:18:47;;;;;;;12.23;7.00;;;;;;;13.04;57.28;100199.00;5053485;28;20376;-46
2024/03/01 10:21:18;;;;;;;11.23;6.57;;;;;;;13.07;57.98;100180.66;5050072;28;20029;-48
2024/03/01 10:23:50;;;;;;;11.38;6.40;;;;;;;12.96;58.84;100173.75;5052286;28;20103;-49
2024/03/01 10:26:23;;;;;;;15.15;6.68;;;;;;;13.00;58.56;100178.09;5051645;28;20492;-47
2024/03/01 10:28:54;;;;;;;12.75;6.03;;;;;;;13.11;58.06;100170.16;5052593;28;20044;-49
2024/03/01 10:31:49;;;;;;;12.35;5.90;;;;;;;12.92;57.29;100163.34;5051452;28;20041;-46
2024/03/01 10:34:31;;;;;;;9.13;5.43;;;;;;;12.98;57.26;100165.91;5052087;28;20033;-47
2024/03/01 10:37:06;;;;;;;13.07;5.82;;;;;;;12.86;58.12;100147.69;5052281;28;20124;-48
2024/03/01 10:40:07;;;;;;;11.70;5.53;;;;;;;13.22;56.33;100144.81;5051665;28;20634;-45
2024/03/01 10:42:36;;;;;;;12.73;6.05;;;;;;;13.63;56.53;100146.13;5053331;28;20500;-51
2024/03/01 10:45:05;;;;;;;13.45;6.10;;;;;;;13.37;55.95;100133.31;5052323;28;20079;-46
2024/03/01 10:47:32;;;;;;;11.75;5.45;;;;;;;14.05;54.57;100134.28;5051303;28;20044;-50
2024/03/01 10:50:12;;;;;;;12.25;5.53;;;;;;;14.37;53.52;100132.16;5051529;28;20418;-47
2024/03/01 10:52:42;;;;;;;14.52;5.47;;;;;;;14.51;53.27;100124.09;5051111;28;20122;-47
2024/03/01 10:55:18;;;;;;;12.52;4.30;;;;;;;14.32;53.34;100110.34;5051311;28;20151;-46
2024/03/01 10:58:13;;;;;;;12.23;4.10;;;;;;;14.40;53.41;100103.25;5034599;28;20515;-46
2024/03/01 11:00:48;;;;;;;7.90;3.45;;;;;;;13.59;54.39;100099.91;5051842;28;20423;-46
2024/03/01 11:03:22;;;;;;;9.15;3.80;;;;;;;14.07;53.03;100093.22;5051528;28;20033;-48
2024/03/01 11:06:16;;;;;;;7.50;3.38;;;;;;;13.95;52.64;100098.63;5051888;28;20029;-48
2024/03/01 11:08:57;;;;;;;7.35;3.47;;;;;;;13.88;53.70;100091.72;5052528;28;20035;-45
2024/03/01 11:11:36;;;;;;;6.88;3.20;;;;;;;13.87;53.25;100100.44;5050336;28;20526;-44
2024/03/01 11:14:04;;;;;;;9.52;3.10;;;;;;;13.53;53.66;100084.28;5052612;28;20031;-48
2024/03/01 11:16:33;;;;;;;8.80;3.60;;;;;;;13.77;53.33;100074.38;5050881;28;20033;-45
2024/03/01 11:19:04;;;;;;;9.25;3.10;;;;;;;12.75;55.91;100065.78;5049600;28;20119;-47
2024/03/01 11:21:32;;;;;;;6.43;3.20;;;;;;;13.27;54.38;100074.94;5050987;28;20033;-45
2024/03/01 11:24:14;;;;;;;6.43;2.92;;;;;;;13.17;54.13;100072.44;5051432;28;20128;-47
2024/03/01 11:26:43;;;;;;;7.30;2.53;;;;;;;13.64;52.33;100058.81;5051340;28;20086;-47